Time,TemperatureF,DewpointF,PressureIn,WindDirection,WindDirectionDegrees,WindSpeedMPH,WindSpeedGustMPH,Humidity,HourlyPrecipIn,Conditions,Clouds,dailyrainin,SoftwareType,DateUTC
2013-08-28 13:19:00,89.4,70.5,29.90,SW,225,0.0,-999.0,54,-99.99,,,0.00,Acu-Link.com,2013-08-28 17:19:00,
2013-08-28 13:34:00,91.2,68.1,29.90,WSW,247,1.7,-999.0,47,-99.99,,,0.00,Acu-Link.com,2013-08-28 17:34:00,
2013-08-28 13:49:00,90.0,71.1,29.89,West,270,1.7,-999.0,54,-99.99,,,0.00,Acu-Link.com,2013-08-28 17:49:00,
2013-08-28 14:04:00,91.2,71.6,29.89,East,90,1.7,-999.0,53,-99.99,,,0.00,Acu-Link.com,2013-08-28 18:04:00,
2013-08-28 14:19:00,89.6,72.8,29.89,SW,225,0.0,-999.0,58,-99.99,,,0.00,Acu-Link.com,2013-08-28 18:19:00,
2013-08-28 14:34:00,91.4,71.3,29.88,SSW,202,0.0,-999.0,52,-99.99,,,0.00,Acu-Link.com,2013-08-28 18:34:00,
2013-08-28 14:50:00,93.0,73.3,29.88,ESE,112,0.0,-999.0,53,-99.99,,,0.00,Acu-Link.com,2013-08-28 18:50:00,
2013-08-28 15:05:00,91.6,70.9,29.87,West,270,0.0,-999.0,51,-99.99,,,0.00,Acu-Link.com,2013-08-28 19:05:00,
2013-08-28 15:20:00,92.8,72.5,29.86,SSW,202,0.0,-999.0,52,-99.99,,,0.00,Acu-Link.com,2013-08-28 19:20:00,
2013-08-28 15:35:00,91.2,71.1,29.86,SSE,157,0.0,-999.0,52,-99.99,,,0.00,Acu-Link.com,2013-08-28 19:35:00,
2013-08-28 15:50:00,91.4,71.3,29.86,WSW,247,0.0,-999.0,52,-99.99,,,0.00,Acu-Link.com,2013-08-28 19:50:00,
2013-08-28 16:05:00,92.3,69.1,29.86,SSW,202,1.7,-999.0,47,-99.99,,,0.00,Acu-Link.com,2013-08-28 20:05:00,
2013-08-28 16:20:00,91.9,71.7,29.85,SW,225,1.1,-999.0,52,-99.99,,,0.00,Acu-Link.com,2013-08-28 20:20:00,
2013-08-28 16:35:00,91.2,68.7,29.84,WSW,247,1.1,-999.0,48,-99.99,,,0.00,Acu-Link.com,2013-08-28 20:35:00,
2013-08-28 16:50:00,90.1,70.6,29.84,WNW,292,0.0,-999.0,53,-99.99,,,0.00,Acu-Link.com,2013-08-28 20:50:00,
2013-08-28 17:06:00,89.2,70.9,29.84,SSW,202,0.0,-999.0,55,-99.99,,,0.00,Acu-Link.com,2013-08-28 21:06:00,
2013-08-28 17:21:00,88.3,70.6,29.84,SW,225,0.0,-999.0,56,-99.99,,,0.00,Acu-Link.com,2013-08-28 21:21:00,
2013-08-28 17:36:00,87.8,70.1,29.84,SSE,157,0.0,-999.0,56,-99.99,,,0.00,Acu-Link.com,2013-08-28 21:36:00,
2013-08-28 17:51:00,87.4,71.3,29.84,West,270,0.0,-999.0,59,-99.99,,,0.00,Acu-Link.com,2013-08-28 21:51:00,
2013-08-28 18:06:00,86.9,71.8,29.84,WSW,247,0.0,-999.0,61,-99.99,,,0.00,Acu-Link.com,2013-08-28 22:06:00,
2013-08-28 18:21:00,86.5,72.8,29.83,WNW,292,2.2,-999.0,64,-99.99,,,0.00,Acu-Link.com,2013-08-28 22:21:00,
2013-08-28 18:36:00,85.5,72.4,29.82,SSE,157,0.0,-999.0,65,-99.99,,,0.00,Acu-Link.com,2013-08-28 22:36:00,
2013-08-28 18:51:00,85.3,72.2,29.82,North,0,0.0,-999.0,65,-99.99,,,0.00,Acu-Link.com,2013-08-28 22:51:00,
2013-08-28 19:06:00,84.9,73.1,29.82,ESE,112,0.0,-999.0,68,-99.99,,,0.00,Acu-Link.com,2013-08-28 23:06:00,
2013-08-28 19:22:00,83.7,72.4,29.82,SW,225,0.0,-999.0,69,-99.99,,,0.00,Acu-Link.com,2013-08-28 23:22:00,
2013-08-28 19:37:00,82.6,72.2,29.83,SW,225,0.0,-999.0,71,-99.99,,,0.00,Acu-Link.com,2013-08-28 23:37:00,
2013-08-28 19:52:00,81.7,71.8,29.83,North,0,0.0,-999.0,72,-99.99,,,0.00,Acu-Link.com,2013-08-28 23:52:00,
2013-08-28 20:07:00,80.6,71.9,29.83,WNW,292,0.0,-999.0,75,-99.99,,,0.00,Acu-Link.com,2013-08-29 00:07:00,
2013-08-28 20:22:00,79.7,71.4,29.83,WNW,292,0.0,-999.0,76,-99.99,,,0.00,Acu-Link.com,2013-08-29 00:22:00,
2013-08-28 20:37:00,78.8,71.0,29.83,WNW,292,0.0,-999.0,77,-99.99,,,0.00,Acu-Link.com,2013-08-29 00:37:00,
2013-08-28 20:52:00,78.1,70.7,29.84,WNW,292,0.0,-999.0,78,-99.99,,,0.00,Acu-Link.com,2013-08-29 00:52:00,
2013-08-28 21:07:00,77.5,70.8,29.84,NNE,22,0.0,-999.0,80,-99.99,,,0.00,Acu-Link.com,2013-08-29 01:07:00,
2013-08-28 21:22:00,77.0,70.7,29.85,NNE,22,0.0,-999.0,81,-99.99,,,0.00,Acu-Link.com,2013-08-29 01:22:00,
2013-08-28 21:37:00,76.3,70.4,29.85,NNE,22,0.0,-999.0,82,-99.99,,,0.00,Acu-Link.com,2013-08-29 01:37:00,
2013-08-28 21:53:00,75.9,70.7,29.84,NNE,22,0.0,-999.0,84,-99.99,,,0.00,Acu-Link.com,2013-08-29 01:53:00,
2013-08-28 22:08:00,75.6,70.8,29.84,NNE,22,0.0,-999.0,85,-99.99,,,0.00,Acu-Link.com,2013-08-29 02:08:00,
2013-08-28 22:23:00,75.0,70.2,29.84,NNE,22,0.0,-999.0,85,-99.99,,,0.00,Acu-Link.com,2013-08-29 02:23:00,
2013-08-28 22:38:00,74.5,69.7,29.85,NNE,22,0.0,-999.0,85,-99.99,,,0.00,Acu-Link.com,2013-08-29 02:38:00,
2013-08-28 22:53:00,74.3,69.8,29.85,NNE,22,0.0,-999.0,86,-99.99,,,0.00,Acu-Link.com,2013-08-29 02:53:00,
2013-08-28 23:08:00,74.3,69.8,29.84,NNE,22,0.0,-999.0,86,-99.99,,,0.00,Acu-Link.com,2013-08-29 03:08:00,
2013-08-28 23:23:00,74.1,69.6,29.85,NNE,22,0.0,-999.0,86,-99.99,,,0.00,Acu-Link.com,2013-08-29 03:23:00,
2013-08-28 23:38:00,74.1,69.6,29.84,NNE,22,0.0,-999.0,86,-99.99,,,0.00,Acu-Link.com,2013-08-29 03:38:00,
2013-08-28 23:53:00,73.9,69.4,29.83,NNE,22,0.0,-999.0,86,-99.99,,,0.00,Acu-Link.com,2013-08-29 03:53:00,